Time;durP1;ratioP1;P1;durP2;ratioP2;P2;SDS_P1;SDS_P2;PMS_P1;PMS_P2;Temp;Humidity;BMP_temperature;BMP_pressure;BME280_temperature;BME280_humidity;BME280_pressure;Samples;Min_cycle;Max_cycle;Signal;HPM_P1;HPM_P2
2021/08/11 00:01:40;;;;;;;10.37;9.37;;;17.00;99.90;;;;;;5031889;28;20186;-42
2021/08/11 00:04:06;;;;;;;10.63;9.20;;;17.00;99.90;;;;;;5028512;28;20205;-42
2021/08/11 00:06:32;;;;;;;12.10;9.70;;;17.00;99.90;;;;;;5028482;28;20202;-40
2021/08/11 00:08:57;;;;;;;11.67;8.97;;;17.10;99.90;;;;;;5039525;28;20508;-40
2021/08/11 00:11:23;;;;;;;10.30;9.20;;;17.00;99.90;;;;;;5033124;28;20202;-39
2021/08/11 00:13:48;;;;;;;11.10;9.70;;;17.00;99.90;;;;;;5028641;28;20252;-40
2021/08/11 00:16:14;;;;;;;12.13;10.67;;;17.00;99.90;;;;;;5032098;28;20198;-41
2021/08/11 00:18:40;;;;;;;12.87;11.50;;;17.00;99.90;;;;;;5028458;28;20201;-39
2021/08/11 00:21:06;;;;;;;11.93;10.73;;;17.00;99.90;;;;;;5027269;28;20194;-40
2021/08/11 00:23:31;;;;;;;12.03;10.80;;;17.00;99.90;;;;;;5039024;28;20593;-42
2021/08/11 00:25:57;;;;;;;13.60;11.13;;;17.00;99.90;;;;;;5035967;28;20217;-39
2021/08/11 00:28:25;;;;;;;13.27;11.87;;;17.00;99.90;;;;;;5028291;28;20206;-40
2021/08/11 00:30:52;;;;;;;14.00;11.43;;;17.00;99.90;;;;;;5040080;28;20285;-40
2021/08/11 00:33:18;;;;;;;13.50;12.10;;;17.00;99.90;;;;;;5028287;28;21130;-42
2021/08/11 00:35:44;;;;;;;12.63;10.63;;;16.90;99.90;;;;;;5027807;28;20520;-40
2021/08/11 00:38:10;;;;;;;16.27;12.53;;;16.90;99.90;;;;;;5036010;28;20421;-39
2021/08/11 00:40:36;;;;;;;13.47;11.57;;;17.00;99.90;;;;;;5031582;28;20425;-41
2021/08/11 00:43:10;;;;;;;16.20;11.93;;;16.90;99.90;;;;;;5029553;28;20256;-38
2021/08/11 00:45:37;;;;;;;15.70;13.30;;;16.90;99.90;;;;;;5045676;28;20239;-42
2021/08/11 00:48:04;;;;;;;15.63;13.73;;;16.90;99.90;;;;;;5028112;28;20843;-43
2021/08/11 00:50:30;;;;;;;17.90;14.30;;;16.90;99.90;;;;;;5027016;28;20479;-45
2021/08/11 00:52:56;;;;;;;16.70;14.67;;;16.90;99.90;;;;;;5031026;28;20451;-41
2021/08/11 00:55:23;;;;;;;17.97;14.87;;;16.90;99.90;;;;;;5039304;28;20565;-42
2021/08/11 00:57:51;;;;;;;19.97;16.63;;;16.80;99.90;;;;;;5027628;28;20187;-38
2021/08/11 01:00:22;;;;;;;23.10;17.03;;;16.80;99.90;;;;;;5031878;28;20421;-41
2021/08/11 01:02:50;;;;;;;19.23;15.70;;;16.90;99.90;;;;;;5026080;28;20429;-39
2021/08/11 01:05:18;;;;;;;19.40;15.00;;;16.80;99.90;;;;;;5027490;28;20919;-39
2021/08/11 01:07:45;;;;;;;21.77;16.30;;;16.80;99.90;;;;;;5034839;28;20990;-40
2021/08/11 01:10:12;;;;;;;22.67;17.47;;;16.80;99.90;;;;;;5041981;28;20426;-39
2021/08/11 01:12:39;;;;;;;22.70;16.93;;;16.80;99.90;;;;;;5035812;28;20937;-39
2021/08/11 01:15:06;;;;;;;22.20;17.50;;;16.90;99.90;;;;;;5028145;28;20512;-38
2021/08/11 01:17:32;;;;;;;23.23;18.57;;;16.80;99.90;;;;;;5027407;28;20440;-39
2021/08/11 01:19:59;;;;;;;22.17;17.60;;;16.90;99.90;;;;;;5026534;28;20765;-40
2021/08/11 01:22:53;;;;;;;26.03;19.73;;;16.80;99.90;;;;;;5026409;28;20251;-39
2021/08/11 01:25:27;;;;;;;25.30;19.23;;;16.80;99.90;;;;;;5038860;28;20907;-39
2021/08/11 01:28:24;;;;;;;24.77;19.20;;;16.90;99.90;;;;;;5027049;28;20646;-39
2021/08/11 01:31:17;;;;;;;27.30;20.87;;;16.90;99.90;;;;;;5036358;28;20847;-39
2021/08/11 01:34:01;;;;;;;25.33;19.70;;;16.80;99.90;;;;;;5025368;28;20433;-40
2021/08/11 01:36:36;;;;;;;26.50;20.50;;;16.80;99.90;;;;;;5026483;28;20459;-40
2021/08/11 01:39:25;;;;;;;27.80;19.67;;;16.90;99.90;;;;;;5035063;28;20426;-39
2021/08/11 01:42:03;;;;;;;25.87;19.97;;;16.80;99.90;;;;;;5032876;28;20432;-42
2021/08/11 01:44:36;;;;;;;28.47;20.13;;;16.90;99.90;;;;;;5040929;28;20859;-39
2021/08/11 01:47:06;;;;;;;26.00;20.10;;;16.90;99.90;;;;;;5032486;28;20429;-42
2021/08/11 01:49:35;;;;;;;30.03;21.40;;;16.90;99.90;;;;;;5026291;28;20677;-40
2021/08/11 01:52:03;;;;;;;24.53;19.27;;;16.90;99.90;;;;;;5026563;28;20941;-40
2021/08/11 01:54:29;;;;;;;28.90;20.93;;;16.90;99.90;;;;;;5042290;28;20827;-39
2021/08/11 01:56:57;;;;;;;28.30;21.17;;;16.90;99.90;;;;;;5040896;28;20424;-39
2021/08/11 01:59:24;;;;;;;29.53;20.87;;;16.90;99.90;;;;;;5026345;28;20452;-39
2021/08/11 02:01:49;;;;;;;28.53;20.83;;;16.90;99.90;;;;;;5025051;28;20425;-40
2021/08/11 02:04:16;;;;;;;26.10;20.20;;;16.80;99.90;;;;;;5026152;28;20429;-41
2021/08/11 02:06:43;;;;;;;30.70;21.47;;;16.90;99.90;;;;;;5026902;28;20720;-39
2021/08/11 02:09:11;;;;;;;27.27;19.10;;;16.90;99.90;;;;;;5034408;28;20542;-40
2021/08/11 02:11:40;;;;;;;25.43;18.53;;;16.90;99.90;;;;;;5034033;28;20452;-39
2021/08/11 02:14:10;;;;;;;27.77;20.93;;;16.90;99.90;;;;;;5026034;28;20503;-39
2021/08/11 02:16:40;;;;;;;29.77;20.93;;;16.90;99.90;;;;;;5035628;28;20420;-39
2021/08/11 02:19:06;;;;;;;28.80;20.63;;;16.90;99.90;;;;;;5025727;28;20483;-39
2021/08/11 02:21:32;;;;;;;27.27;18.30;;;16.90;99.90;;;;;;5024966;28;20483;-39
2021/08/11 02:23:58;;;;;;;29.83;20.27;;;16.90;99.90;;;;;;5034712;28;20456;-39
2021/08/11 02:26:35;;;;;;;27.87;20.17;;;16.90;99.90;;;;;;5036126;28;20198;-39
2021/08/11 02:29:13;;;;;;;27.40;20.40;;;16.90;99.90;;;;;;5026279;28;20962;-40
2021/08/11 02:31:48;;;;;;;26.20;18.80;;;16.90;99.90;;;;;;5030137;28;20425;-39
2021/08/11 02:34:41;;;;;;;30.70;20.13;;;16.80;99.90;;;;;;5026032;28;20436;-39
2021/08/11 02:37:13;;;;;;;30.00;20.50;;;16.80;99.90;;;;;;5025433;28;20428;-38
2021/08/11 02:40:04;;;;;;;29.90;21.10;;;16.80;99.90;;;;;;5027586;28;20803;-38
2021/08/11 02:43:04;;;;;;;29.67;20.57;;;16.90;99.90;;;;;;5031025;28;20920;-39
2021/08/11 02:45:32;;;;;;;31.33;20.90;;;16.90;99.90;;;;;;5027081;28;20486;-40
2021/08/11 02:48:00;;;;;;;31.90;20.63;;;17.00;99.90;;;;;;5025894;28;20453;-39
2021/08/11 02:50:26;;;;;;;31.50;20.90;;;16.90;99.90;;;;;;5025183;28;20510;-40
2021/08/11 02:52:53;;;;;;;27.23;19.53;;;16.90;99.90;;;;;;5033254;28;20428;-39
2021/08/11 02:55:19;;;;;;;30.30;20.10;;;16.80;99.90;;;;;;5032222;28;20443;-39
2021/08/11 02:57:46;;;;;;;32.37;19.57;;;16.90;99.90;;;;;;5029822;28;20524;-39
2021/08/11 03:00:12;;;;;;;29.93;20.60;;;16.90;99.90;;;;;;5024790;28;20814;-39
2021/08/11 03:02:38;;;;;;;29.23;20.07;;;16.80;99.90;;;;;;5036934;28;20429;-42
2021/08/11 03:05:05;;;;;;;31.40;20.37;;;16.80;99.90;;;;;;5029459;28;20687;-40
2021/08/11 03:07:31;;;;;;;27.30;18.80;;;16.70;99.90;;;;;;5028812;28;20440;-40
2021/08/11 03:09:56;;;;;;;27.37;19.10;;;16.70;99.90;;;;;;5036451;28;20460;-39
2021/08/11 03:12:23;;;;;;;23.10;16.97;;;16.60;99.90;;;;;;5034056;28;20440;-39
2021/08/11 03:14:49;;;;;;;22.70;16.80;;;16.60;99.90;;;;;;5029670;28;20263;-39
2021/08/11 03:17:16;;;;;;;24.67;16.10;;;16.50;99.90;;;;;;5035033;28;20509;-41
2021/08/11 03:19:43;;;;;;;22.67;16.33;;;16.40;99.90;;;;;;5029553;28;20782;-39
2021/08/11 03:22:10;;;;;;;21.00;15.70;;;16.50;99.90;;;;;;5027925;28;20421;-39
2021/08/11 03:24:37;;;;;;;21.83;15.73;;;16.30;99.90;;;;;;5041085;28;20523;-38
2021/08/11 03:27:03;;;;;;;24.07;17.40;;;16.30;99.90;;;;;;5037830;28;20424;-39
2021/08/11 03:29:29;;;;;;;20.40;14.50;;;16.10;99.90;;;;;;5033352;28;20488;-39
2021/08/11 03:31:55;;;;;;;22.20;14.97;;;16.10;99.90;;;;;;5030079;28;20420;-41
2021/08/11 03:34:21;;;;;;;22.00;15.57;;;16.00;99.90;;;;;;5029010;28;20221;-43
2021/08/11 03:36:46;;;;;;;19.87;15.63;;;15.90;99.90;;;;;;5028979;28;20236;-38
2021/08/11 03:39:12;;;;;;;27.00;18.23;;;15.90;99.90;;;;;;5033259;28;20942;-38
2021/08/11 03:41:38;;;;;;;22.83;16.30;;;16.10;99.90;;;;;;5045213;28;20656;-43
2021/08/11 03:44:04;;;;;;;24.60;16.53;;;16.10;99.90;;;;;;5039205;28;20591;-39
2021/08/11 03:46:31;;;;;;;25.20;16.40;;;16.10;99.90;;;;;;5047297;28;20556;-39
2021/08/11 03:48:57;;;;;;;20.40;14.33;;;16.10;99.90;;;;;;5032168;28;20486;-39
2021/08/11 03:51:22;;;;;;;16.60;13.50;;;15.90;99.90;;;;;;5028125;28;20511;-38
2021/08/11 03:53:48;;;;;;;19.67;14.37;;;15.80;99.90;;;;;;5031074;28;20436;-38
2021/08/11 03:56:14;;;;;;;24.60;16.13;;;15.70;99.90;;;;;;5040945;28;20193;-39
2021/08/11 03:58:40;;;;;;;25.80;17.90;;;15.80;99.90;;;;;;5030864;28;20209;-39
2021/08/11 04:01:06;;;;;;;22.00;16.40;;;15.90;99.90;;;;;;5029445;28;20967;-39
2021/08/11 04:03:32;;;;;;;22.23;16.50;;;15.90;99.90;;;;;;5032212;28;20239;-42
2021/08/11 04:05:57;;;;;;;19.87;14.93;;;15.90;99.90;;;;;;5028626;28;20912;-40
2021/08/11 04:08:23;;;;;;;19.30;14.47;;;15.90;99.90;;;;;;5028319;28;20305;-39
2021/08/11 04:10:49;;;;;;;18.67;14.60;;;15.90;99.90;;;;;;5046870;28;20552;-39
2021/08/11 04:13:15;;;;;;;20.33;14.37;;;15.90;99.90;;;;;;5041601;28;20506;-39
2021/08/11 04:15:42;;;;;;;20.37;15.57;;;15.90;99.90;;;;;;5028719;28;20724;-39
2021/08/11 04:18:08;;;;;;;22.83;16.00;;;15.80;99.90;;;;;;5030312;28;20425;-39
2021/08/11 04:20:34;;;;;;;19.43;14.70;;;15.90;99.90;;;;;;5027961;28;20516;-38
2021/08/11 04:23:00;;;;;;;21.43;15.90;;;15.90;99.90;;;;;;5031021;28;20439;-39
2021/08/11 04:25:26;;;;;;;22.43;14.80;;;15.90;99.90;;;;;;5037910;28;20463;-38
2021/08/11 04:27:52;;;;;;;21.17;14.83;;;15.90;99.90;;;;;;5035470;28;20560;-39
2021/08/11 04:30:18;;;;;;;25.57;16.17;;;15.80;99.90;;;;;;5027099;28;20417;-39
2021/08/11 04:32:43;;;;;;;23.60;16.67;;;15.80;99.90;;;;;;5038767;28;20244;-40
2021/08/11 04:35:11;;;;;;;22.20;16.40;;;15.90;99.90;;;;;;5028259;28;20192;-39
2021/08/11 04:37:40;;;;;;;23.13;17.03;;;15.90;99.90;;;;;;5027701;28;20178;-39
2021/08/11 04:40:08;;;;;;;23.13;15.57;;;16.00;99.90;;;;;;5028121;28;20783;-38
2021/08/11 04:42:34;;;;;;;22.50;16.00;;;15.90;99.90;;;;;;5037620;28;20433;-38
2021/08/11 04:45:00;;;;;;;21.80;15.47;;;15.80;99.90;;;;;;5045302;28;20413;-39
2021/08/11 04:47:26;;;;;;;26.13;17.13;;;15.80;99.90;;;;;;5043856;28;20436;-39
2021/08/11 04:49:52;;;;;;;29.20;19.17;;;15.90;99.90;;;;;;5027214;28;20491;-38
2021/08/11 04:52:18;;;;;;;27.57;19.27;;;15.90;99.90;;;;;;5027753;28;20182;-39
2021/08/11 04:54:43;;;;;;;27.70;19.57;;;15.90;99.90;;;;;;5028673;28;20195;-39
2021/08/11 04:57:09;;;;;;;28.67;19.43;;;15.90;99.90;;;;;;5038763;28;20178;-40
2021/08/11 04:59:35;;;;;;;32.07;20.83;;;15.90;99.90;;;;;;5036949;28;20194;-39
2021/08/11 05:02:00;;;;;;;28.43;19.37;;;16.00;99.90;;;;;;5028749;28;20260;-39
2021/08/11 05:04:27;;;;;;;30.40;19.10;;;16.00;99.90;;;;;;5027612;28;20266;-39
2021/08/11 05:06:52;;;;;;;27.80;20.00;;;16.00;99.90;;;;;;5027372;28;20186;-39
2021/08/11 05:09:18;;;;;;;32.60;20.97;;;16.00;99.90;;;;;;5031138;28;20468;-39
2021/08/11 05:11:44;;;;;;;28.70;19.63;;;16.10;99.90;;;;;;5039677;28;20187;-40
2021/08/11 05:14:09;;;;;;;31.50;20.53;;;16.10;99.90;;;;;;5029762;28;20740;-38
2021/08/11 05:16:35;;;;;;;30.23;20.83;;;16.10;99.90;;;;;;5029128;28;20191;-39
2021/08/11 05:19:01;;;;;;;31.00;20.70;;;16.10;99.90;;;;;;5038767;28;20186;-38
2021/08/11 05:21:27;;;;;;;26.53;18.57;;;16.10;99.90;;;;;;5033328;28;20196;-39
2021/08/11 05:23:52;;;;;;;30.57;19.83;;;16.10;99.90;;;;;;5045905;28;20668;-38
2021/08/11 05:26:19;;;;;;;29.20;20.17;;;16.20;99.90;;;;;;5032393;28;20186;-38
2021/08/11 05:28:46;;;;;;;29.80;19.90;;;16.30;99.90;;;;;;5031079;28;20214;-38
2021/08/11 05:31:16;;;;;;;34.43;19.90;;;16.30;99.90;;;;;;5026247;28;20513;-38
2021/08/11 05:33:42;;;;;;;37.70;20.47;;;16.30;99.90;;;;;;5034682;28;20642;-38
2021/08/11 05:36:07;;;;;;;29.87;19.47;;;16.20;99.90;;;;;;5027095;28;20508;-38
2021/08/11 05:38:39;;;;;;;29.00;18.37;;;16.20;99.90;;;;;;5029422;28;20293;-39
2021/08/11 05:41:05;;;;;;;29.67;18.83;;;16.20;99.90;;;;;;5038202;28;20248;-39
2021/08/11 05:43:31;;;;;;;28.40;18.90;;;16.30;99.90;;;;;;5043290;28;20429;-41
2021/08/11 05:45:57;;;;;;;35.47;20.53;;;16.30;99.90;;;;;;5033644;28;21003;-39
2021/08/11 05:48:23;;;;;;;30.33;19.40;;;16.30;99.90;;;;;;5034905;28;20521;-39
2021/08/11 05:50:48;;;;;;;27.87;18.83;;;16.30;99.90;;;;;;5026154;28;20829;-39
2021/08/11 05:53:14;;;;;;;29.53;20.67;;;16.30;99.90;;;;;;5025944;28;20198;-39
2021/08/11 05:55:41;;;;;;;41.07;20.80;;;16.30;99.90;;;;;;5034414;28;20239;-39
2021/08/11 05:58:08;;;;;;;35.43;20.20;;;16.30;99.90;;;;;;5041287;28;20189;-39
2021/08/11 06:00:33;;;;;;;32.50;21.00;;;16.30;99.90;;;;;;5026445;28;20421;-38
2021/08/11 06:02:59;;;;;;;29.13;18.73;;;16.20;99.90;;;;;;5025479;28;20912;-39
2021/08/11 06:05:25;;;;;;;27.40;19.30;;;16.20;99.90;;;;;;5026379;28;20657;-39
2021/08/11 06:07:50;;;;;;;29.40;20.90;;;16.20;99.90;;;;;;5026441;28;20205;-38
2021/08/11 06:10:16;;;;;;;29.07;18.67;;;16.20;99.90;;;;;;5026267;28;20364;-39
2021/08/11 06:12:42;;;;;;;26.60;18.43;;;16.20;99.90;;;;;;5041595;28;20186;-39
2021/08/11 06:15:08;;;;;;;26.80;19.73;;;16.20;99.90;;;;;;5026353;28;20612;-40
2021/08/11 06:17:47;;;;;;;30.33;20.33;;;16.20;99.90;;;;;;5033281;28;20198;-39
2021/08/11 06:20:16;;;;;;;30.33;21.00;;;16.30;99.90;;;;;;5022775;28;21009;-39
2021/08/11 06:22:42;;;;;;;34.00;22.43;;;16.30;99.90;;;;;;5024749;28;20993;-39
2021/08/11 06:25:09;;;;;;;32.47;21.30;;;16.30;99.90;;;;;;5031957;28;20796;-39
2021/08/11 06:27:35;;;;;;;32.50;20.80;;;16.40;99.90;;;;;;5037784;28;20491;-39
2021/08/11 06:30:01;;;;;;;28.97;20.60;;;16.40;99.90;;;;;;5038105;28;20568;-38
2021/08/11 06:32:26;;;;;;;26.93;18.70;;;16.50;99.90;;;;;;5036359;28;20252;-38
2021/08/11 06:34:52;;;;;;;32.33;21.07;;;16.50;99.90;;;;;;5037065;28;20183;-39
2021/08/11 06:37:18;;;;;;;27.80;18.07;;;16.50;99.90;;;;;;5032096;28;20645;-39
2021/08/11 06:39:44;;;;;;;27.30;20.07;;;16.50;99.90;;;;;;5038205;28;20201;-40
2021/08/11 06:42:10;;;;;;;28.77;20.07;;;16.60;99.90;;;;;;5043891;28;20919;-38
2021/08/11 06:44:36;;;;;;;30.27;21.53;;;16.60;99.90;;;;;;5041700;28;20368;-38
2021/08/11 06:47:02;;;;;;;32.87;20.73;;;16.60;99.90;;;;;;5045194;28;20422;-38
2021/08/11 06:49:27;;;;;;;29.70;20.60;;;16.60;99.90;;;;;;5025902;28;20622;-38
2021/08/11 06:51:53;;;;;;;26.30;19.63;;;16.60;99.90;;;;;;5024585;28;20949;-40
2021/08/11 06:54:19;;;;;;;28.80;20.37;;;16.70;99.90;;;;;;5025351;28;20182;-39
2021/08/11 06:56:44;;;;;;;22.90;17.50;;;16.70;99.90;;;;;;5030369;28;20526;-39
2021/08/11 06:59:10;;;;;;;27.50;19.63;;;16.70;99.90;;;;;;5030679;28;20425;-40
2021/08/11 07:01:36;;;;;;;26.33;18.90;;;16.80;99.90;;;;;;5024143;28;20194;-39
2021/08/11 07:04:01;;;;;;;24.53;18.10;;;16.80;99.90;;;;;;5035702;28;20182;-39
2021/08/11 07:06:27;;;;;;;28.67;20.70;;;16.90;99.90;;;;;;5025415;28;20221;-41
2021/08/11 07:08:53;;;;;;;23.50;17.30;;;17.00;99.90;;;;;;5024825;28;20253;-40
2021/08/11 07:11:19;;;;;;;25.47;18.97;;;17.00;99.90;;;;;;5035069;28;20210;-39
2021/08/11 07:13:45;;;;;;;25.63;20.07;;;17.10;99.90;;;;;;5043056;28;20174;-40
2021/08/11 07:16:11;;;;;;;24.20;19.20;;;17.10;99.90;;;;;;5032736;28;20943;-39
2021/08/11 07:18:36;;;;;;;25.33;19.50;;;17.20;99.90;;;;;;5030874;28;20272;-39
2021/08/11 07:21:02;;;;;;;26.10;20.30;;;17.20;99.90;;;;;;5024659;28;20370;-39
2021/08/11 07:23:28;;;;;;;26.03;18.37;;;17.30;99.90;;;;;;5032329;28;20424;-39
2021/08/11 07:25:54;;;;;;;26.13;19.37;;;17.40;99.90;;;;;;5036943;28;20436;-39
2021/08/11 07:28:19;;;;;;;20.57;15.47;;;17.40;99.90;;;;;;5039486;28;20262;-39
2021/08/11 07:30:45;;;;;;;20.50;17.23;;;17.40;99.90;;;;;;5032383;28;20198;-39
2021/08/11 07:33:12;;;;;;;25.07;18.07;;;17.50;99.90;;;;;;5031554;28;20186;-39
2021/08/11 07:35:39;;;;;;;25.50;20.07;;;17.60;99.90;;;;;;5029934;28;20764;-42
2021/08/11 07:38:06;;;;;;;24.90;19.03;;;17.60;99.90;;;;;;5025078;28;20760;-39
2021/08/11 07:40:33;;;;;;;24.80;17.73;;;17.60;99.90;;;;;;5031319;28;20425;-41
2021/08/11 07:42:59;;;;;;;20.97;16.37;;;17.70;99.90;;;;;;5034944;28;20594;-40
2021/08/11 07:45:26;;;;;;;27.47;18.83;;;17.70;99.90;;;;;;5031680;28;20433;-42
2021/08/11 07:47:54;;;;;;;24.97;17.50;;;17.80;99.90;;;;;;5038859;28;20431;-39
2021/08/11 07:50:24;;;;;;;23.43;18.30;;;17.80;99.90;;;;;;5031730;28;20412;-43
2021/08/11 07:52:50;;;;;;;19.00;15.50;;;17.90;99.90;;;;;;5030876;28;20413;-40
2021/08/11 07:55:17;;;;;;;18.47;16.00;;;18.00;99.90;;;;;;5041381;28;20415;-40
2021/08/11 07:57:43;;;;;;;20.27;16.17;;;18.00;99.90;;;;;;5037115;28;20494;-40
2021/08/11 08:00:10;;;;;;;22.50;15.63;;;18.10;99.90;;;;;;5032975;28;20986;-39
2021/08/11 08:02:36;;;;;;;20.40;16.33;;;18.20;99.90;;;;;;5028137;28;20421;-38
2021/08/11 08:05:02;;;;;;;22.27;18.10;;;18.30;99.90;;;;;;5033308;28;21004;-41
2021/08/11 08:07:29;;;;;;;20.00;16.53;;;18.40;99.90;;;;;;5028978;28;20552;-39
2021/08/11 08:09:55;;;;;;;17.07;15.20;;;18.40;99.90;;;;;;5027980;28;20468;-39
2021/08/11 08:12:20;;;;;;;19.37;15.40;;;18.50;99.90;;;;;;5043804;28;20481;-40
2021/08/11 08:14:47;;;;;;;18.50;14.40;;;18.60;99.90;;;;;;5042072;28;20455;-39
2021/08/11 08:17:12;;;;;;;22.03;16.20;;;18.60;99.90;;;;;;5028325;28;20190;-39
2021/08/11 08:19:38;;;;;;;18.70;15.57;;;18.70;99.90;;;;;;5028606;28;20923;-39
2021/08/11 08:22:04;;;;;;;15.97;14.07;;;18.70;99.90;;;;;;5027804;28;20198;-38
2021/08/11 08:24:32;;;;;;;15.57;12.50;;;18.90;99.90;;;;;;5027313;28;20198;-39
2021/08/11 08:26:58;;;;;;;13.87;12.33;;;18.90;99.90;;;;;;5037541;28;20188;-41
2021/08/11 08:29:24;;;;;;;12.90;11.27;;;19.00;99.90;;;;;;5037384;28;20476;-41
2021/08/11 08:31:50;;;;;;;12.87;11.20;;;19.00;99.90;;;;;;5027111;28;20706;-39
2021/08/11 08:34:15;;;;;;;14.07;11.83;;;19.10;99.90;;;;;;5037236;28;20260;-39
2021/08/11 08:36:41;;;;;;;15.20;12.53;;;19.10;99.90;;;;;;5028023;28;20179;-39
2021/08/11 08:39:07;;;;;;;14.20;12.70;;;19.20;99.90;;;;;;5028200;28;20205;-42
2021/08/11 08:41:34;;;;;;;14.63;11.60;;;19.20;99.90;;;;;;5034943;28;20280;-42
2021/08/11 08:44:00;;;;;;;13.50;12.10;;;19.20;99.90;;;;;;5039731;28;20240;-40
2021/08/11 08:46:26;;;;;;;12.90;11.60;;;19.30;99.90;;;;;;5038610;28;20904;-40
2021/08/11 08:48:52;;;;;;;11.40;10.30;;;19.40;99.90;;;;;;5031990;28;20464;-39
2021/08/11 08:51:20;;;;;;;10.40;8.70;;;19.50;99.90;;;;;;5027303;28;20444;-41
2021/08/11 08:53:46;;;;;;;11.30;10.07;;;19.60;99.90;;;;;;5027735;28;20425;-39
2021/08/11 08:56:12;;;;;;;11.77;10.53;;;19.60;99.90;;;;;;5031174;28;20429;-39
2021/08/11 08:58:39;;;;;;;11.97;10.77;;;19.60;99.90;;;;;;5040799;28;20430;-39
2021/08/11 09:01:04;;;;;;;12.93;10.80;;;19.60;99.90;;;;;;5026655;28;20214;-40
2021/08/11 09:03:30;;;;;;;10.40;9.30;;;19.70;99.90;;;;;;5028235;28;20473;-41
2021/08/11 09:05:56;;;;;;;10.60;9.43;;;19.70;99.90;;;;;;5027637;28;20727;-43
2021/08/11 09:08:21;;;;;;;10.43;9.27;;;19.80;99.90;;;;;;5027691;28;20249;-42
2021/08/11 09:10:47;;;;;;;9.67;8.73;;;19.80;99.90;;;;;;5028215;28;20182;-40
2021/08/11 09:13:15;;;;;;;10.20;9.03;;;19.90;99.90;;;;;;5031469;28;20716;-40
2021/08/11 09:15:43;;;;;;;8.90;8.03;;;19.90;99.90;;;;;;5029932;28;20273;-39
2021/08/11 09:18:21;;;;;;;10.30;9.30;;;20.00;99.90;;;;;;5027100;28;20490;-42
2021/08/11 09:20:49;;;;;;;9.33;8.43;;;20.10;99.90;;;;;;5038196;28;20969;-41
2021/08/11 09:23:31;;;;;;;8.70;7.90;;;20.10;99.90;;;;;;5046822;28;20759;-40
2021/08/11 09:25:59;;;;;;;8.67;7.73;;;20.20;99.90;;;;;;5045361;28;20428;-40
2021/08/11 09:28:26;;;;;;;9.57;8.27;;;20.30;99.90;;;;;;5035774;28;20486;-39
2021/08/11 09:30:52;;;;;;;8.90;8.00;;;20.20;99.90;;;;;;5031341;28;20501;-41
2021/08/11 09:33:22;;;;;;;8.90;8.10;;;20.30;99.90;;;;;;5027181;28;20890;-42
2021/08/11 09:35:48;;;;;;;8.40;7.60;;;20.30;99.90;;;;;;5042393;28;20178;-41
2021/08/11 09:38:14;;;;;;;6.60;6.00;;;20.40;99.90;;;;;;5046777;28;20431;-42
2021/08/11 09:40:42;;;;;;;7.37;6.67;;;20.50;99.90;;;;;;5045243;28;20761;-40
2021/08/11 09:43:30;;;;;;;10.23;9.23;;;20.60;99.90;;;;;;5035586;28;20915;-42
2021/08/11 09:45:56;;;;;;;10.93;9.80;;;20.70;99.90;;;;;;5037197;28;21015;-40
2021/08/11 09:48:42;;;;;;;14.63;13.13;;;20.70;99.90;;;;;;5026540;28;20560;-41
2021/08/11 09:51:10;;;;;;;14.83;12.10;;;20.80;99.90;;;;;;5033517;28;20416;-42
2021/08/11 09:53:38;;;;;;;14.33;12.80;;;20.90;99.90;;;;;;5046481;28;20432;-41
2021/08/11 09:56:08;;;;;;;13.40;11.87;;;20.80;99.90;;;;;;5041105;28;20439;-42
2021/08/11 09:58:41;;;;;;;10.83;9.73;;;20.80;99.90;;;;;;5037522;28;20864;-39
2021/08/11 10:01:24;;;;;;;7.27;6.13;;;20.80;99.90;;;;;;5023827;28;20429;-40
2021/08/11 10:03:56;;;;;;;8.67;6.80;;;20.90;99.90;;;;;;5028943;28;20419;-42
2021/08/11 10:06:33;;;;;;;7.03;6.33;;;20.90;99.90;;;;;;5030537;28;20429;-41
2021/08/11 10:09:16;;;;;;;6.60;6.00;;;20.90;99.90;;;;;;5028979;28;20477;-41
2021/08/11 10:11:56;;;;;;;7.07;6.00;;;20.90;99.90;;;;;;5025826;28;20497;-41
2021/08/11 10:14:31;;;;;;;6.20;5.60;;;20.90;99.90;;;;;;5043260;28;20416;-41
2021/08/11 10:16:59;;;;;;;6.83;5.67;;;20.90;99.90;;;;;;5027361;28;20805;-40
2021/08/11 10:19:28;;;;;;;6.03;5.43;;;20.90;99.90;;;;;;5034170;28;20436;-41
2021/08/11 10:22:07;;;;;;;5.37;4.87;;;20.90;99.90;;;;;;5040260;28;20416;-41
2021/08/11 10:24:36;;;;;;;6.33;5.83;;;20.90;99.90;;;;;;5030421;28;20950;-40
2021/08/11 10:27:09;;;;;;;8.40;7.57;;;20.90;99.90;;;;;;5032912;28;20435;-39
2021/08/11 10:29:38;;;;;;;10.93;7.90;;;21.10;99.90;;;;;;5041222;28;20511;-43
2021/08/11 10:32:07;;;;;;;7.07;6.37;;;21.20;99.90;;;;;;5034708;28;20797;-40
2021/08/11 10:34:35;;;;;;;7.03;6.33;;;21.30;99.90;;;;;;5025696;28;20433;-41
2021/08/11 10:37:04;;;;;;;7.77;7.00;;;21.50;99.90;;;;;;5025220;28;20421;-41
2021/08/11 10:39:32;;;;;;;10.60;6.60;;;21.50;99.90;;;;;;5022517;28;20820;-41
2021/08/11 10:42:01;;;;;;;6.10;5.60;;;21.50;99.90;;;;;;5035167;28;21029;-44
2021/08/11 10:44:29;;;;;;;6.80;5.63;;;21.50;99.90;;;;;;5034937;28;20444;-45
2021/08/11 10:47:03;;;;;;;5.90;5.40;;;21.60;99.90;;;;;;5041373;28;20473;-42
2021/08/11 10:49:29;;;;;;;6.07;5.57;;;21.60;99.90;;;;;;5024798;28;20958;-42
2021/08/11 10:52:00;;;;;;;6.50;5.37;;;21.60;99.90;;;;;;5026447;28;20431;-41
2021/08/11 10:54:26;;;;;;;5.77;5.10;;;21.60;99.90;;;;;;5024122;28;20504;-43
2021/08/11 10:56:54;;;;;;;6.33;5.83;;;21.60;99.90;;;;;;5024864;28;20424;-43
2021/08/11 10:59:23;;;;;;;5.93;5.17;;;21.60;99.90;;;;;;5033596;28;20424;-43
2021/08/11 11:01:58;;;;;;;6.37;5.67;;;21.60;99.90;;;;;;5033816;28;20507;-43
2021/08/11 11:04:49;;;;;;;6.13;5.20;;;21.60;99.90;;;;;;5025598;28;20427;-40
2021/08/11 11:07:16;;;;;;;6.17;5.03;;;21.60;99.90;;;;;;5034797;28;20476;-42
2021/08/11 11:09:44;;;;;;;4.77;4.37;;;21.60;99.90;;;;;;5025055;28;20527;-41
2021/08/11 11:12:19;;;;;;;4.70;4.30;;;21.60;99.90;;;;;;5030595;28;20852;-40
2021/08/11 11:14:48;;;;;;;5.00;4.60;;;21.50;99.90;;;;;;5030933;28;20415;-41
2021/08/11 11:17:15;;;;;;;5.77;5.20;;;21.50;99.90;;;;;;5030437;28;20471;-40
2021/08/11 11:20:03;;;;;;;4.80;4.40;;;21.70;99.90;;;;;;5035410;28;20433;-40
2021/08/11 11:22:35;;;;;;;5.83;5.27;;;21.70;99.90;;;;;;5041228;28;20424;-41
2021/08/11 11:25:01;;;;;;;5.20;4.70;;;21.90;99.90;;;;;;5029144;28;20427;-43
2021/08/11 11:27:54;;;;;;;5.40;4.90;;;21.90;99.90;;;;;;5031287;28;20440;-41
2021/08/11 11:30:25;;;;;;;5.13;4.47;;;22.10;99.90;;;;;;5042645;28;20424;-43
2021/08/11 11:32:51;;;;;;;6.20;5.23;;;22.20;99.90;;;;;;5038856;28;20413;-41
2021/08/11 11:35:22;;;;;;;4.80;4.40;;;22.20;99.90;;;;;;5028268;28;20800;-44
2021/08/11 11:38:14;;;;;;;6.73;5.10;;;22.20;99.90;;;;;;5029406;28;20182;-41
2021/08/11 11:41:03;;;;;;;9.33;8.63;;;22.20;99.90;;;;;;5027405;28;20520;-41
2021/08/11 11:43:30;;;;;;;7.07;6.47;;;22.40;99.90;;;;;;5033100;28;21083;-39
2021/08/11 11:45:57;;;;;;;11.40;10.33;;;22.50;99.90;;;;;;5040064;28;20457;-41
2021/08/11 11:48:23;;;;;;;7.00;6.30;;;22.60;99.90;;;;;;5035790;28;20463;-43
2021/08/11 11:51:01;;;;;;;5.00;4.60;;;22.70;99.90;;;;;;5033504;28;20433;-40
2021/08/11 11:53:33;;;;;;;4.53;4.13;;;22.60;99.90;;;;;;5035816;28;20751;-43
2021/08/11 11:56:12;;;;;;;5.47;4.97;;;22.50;99.90;;;;;;5029011;28;20428;-44
2021/08/11 11:58:46;;;;;;;4.53;4.20;;;22.60;99.90;;;;;;5031996;28;20483;-40
2021/08/11 12:01:12;;;;;;;5.27;4.80;;;22.60;99.90;;;;;;5044150;28;20503;-44
2021/08/11 12:03:45;;;;;;;4.60;4.20;;;22.60;99.90;;;;;;5036007;28;20988;-46
2021/08/11 12:06:11;;;;;;;5.03;4.53;;;22.60;99.90;;;;;;5040038;28;20451;-39
2021/08/11 12:08:38;;;;;;;5.90;5.23;;;22.60;99.90;;;;;;5033672;28;20460;-42
2021/08/11 12:11:12;;;;;;;4.50;4.10;;;22.70;99.90;;;;;;5029208;28;20487;-42
2021/08/11 12:13:51;;;;;;;5.87;5.37;;;22.80;99.90;;;;;;5030952;28;20428;-40
2021/08/11 12:16:19;;;;;;;5.30;4.80;;;22.80;99.90;;;;;;5039209;28;20420;-40
2021/08/11 12:18:47;;;;;;;4.30;4.00;;;22.90;99.90;;;;;;5039209;28;20842;-43
2021/08/11 12:21:18;;;;;;;5.20;4.63;;;23.00;99.90;;;;;;5037684;28;20429;-41
2021/08/11 12:23:44;;;;;;;4.27;3.90;;;23.00;99.90;;;;;;5031318;28;20445;-39
2021/08/11 12:26:13;;;;;;;5.60;4.80;;;23.00;99.90;;;;;;5028122;28;20838;-42
2021/08/11 12:28:49;;;;;;;5.10;4.70;;;23.00;99.90;;;;;;5032243;28;20468;-42
2021/08/11 12:31:17;;;;;;;7.90;4.93;;;23.00;99.90;;;;;;5046008;28;20415;-40
2021/08/11 12:33:45;;;;;;;6.97;5.37;;;23.10;99.90;;;;;;5029923;28;20417;-43
2021/08/11 12:36:13;;;;;;;4.63;4.17;;;23.10;99.90;;;;;;5030861;28;20963;-45
2021/08/11 12:38:41;;;;;;;4.90;4.50;;;23.20;99.90;;;;;;5036341;28;20448;-42
2021/08/11 12:41:17;;;;;;;5.33;4.80;;;23.20;99.90;;;;;;5026795;28;20981;-39